サンクトペテルブルク の空港の天気 - METARとTAF

プルコヴォ空港(サンクトペテルブルグ) ( ULLI / LED ) - ロシア サンクトペテルブルク
飛行場実況気象(Metar)
観測時間03/29 00:00 MSK (03/28 21:00 UTC)
風向・風速西 4m/s
視程10km以上
天気現象
なし
気温-3℃
湿度80%
気圧1011hPa
METARULLI 282100Z 28004MPS CAVOK M03/M06 Q1011 R28L/310150 NOSIG
過去の天気等 Google飛行場航空写真 Wunderground天気予報

過去48時間のMETAR

飛行場予報(TAF)
発表時間: 3/28 23:00 MSK (3/28 20:00 UTC)
予報対象時間: 29日0時 MSK ~ 30日0時 MSK
風向・風速西北西 3m/s 瞬間風速 8m/s
視程6,000m
全天の8割程度の雲 雲底高度 300m
29日0時 MSK ~ 29日9時 MSK に一時的に
視程2,100m
天気現象弱いしゅう雪 もや
全天の8割程度の雲 雲底高度 210m
全天の8割程度の積乱雲 雲底高度 460m
29日9時 MSK ~ 29日18時 MSK に一時的に
風向・風速北西 7m/s 瞬間風速 13m/s
視程2,100m
天気現象弱いしゅう雪 もや
全天の8割程度の雲 雲底高度 150m
全天の8割程度の積乱雲 雲底高度 460m
29日18時 MSK ~ 29日24時 MSK に一時的に
風向・風速北北西 3m/s 瞬間風速 8m/s
視程2,100m
天気現象弱いしゅう雪 もや
全天の8割程度の雲 雲底高度 210m
全天の8割程度の積乱雲 雲底高度 460m
TAF ULLI 282000Z 2821/2921 29003G08MPS 6000 BKN010
TEMPO 2821/2906 2100 -SHSN BR BKN007 BKN015CB
TEMPO 2906/2915 31007G13MPS 2100 -SHSN BR BKN005 BKN015CB
TEMPO 2915/2921 33003G08MPS 2100 -SHSN BR BKN007 BKN015CB